createdAt,value
2024-03-14T00:01:06.929Z,89.31
2024-03-14T00:03:33.814Z,88.81
2024-03-14T00:06:00.979Z,88.99
2024-03-14T00:08:27.380Z,88.30
2024-03-14T00:10:53.976Z,88.54
2024-03-14T00:13:20.337Z,89.81
2024-03-14T00:15:46.662Z,90.28
2024-03-14T00:18:13.189Z,89.66
2024-03-14T00:20:39.667Z,89.59
2024-03-14T00:23:06.131Z,89.59
2024-03-14T00:25:32.658Z,89.24
2024-03-14T00:28:00.644Z,89.30
2024-03-14T00:30:27.307Z,89.77
2024-03-14T00:32:54.301Z,89.06
2024-03-14T00:35:20.893Z,88.58
2024-03-14T00:37:47.229Z,88.97
2024-03-14T00:40:13.564Z,89.04
2024-03-14T00:42:46.011Z,88.55
2024-03-14T00:45:12.536Z,87.96
2024-03-14T00:47:39.118Z,88.67
2024-03-14T00:50:05.695Z,88.11
2024-03-14T00:52:32.055Z,88.03
2024-03-14T00:54:58.400Z,88.78
2024-03-14T00:57:24.801Z,89.02
2024-03-14T00:59:51.190Z,88.07
2024-03-14T01:02:17.578Z,88.56
2024-03-14T01:04:44.072Z,88.61
2024-03-14T01:07:10.631Z,88.60
2024-03-14T01:09:37.040Z,89.13
2024-03-14T01:12:03.776Z,88.91
2024-03-14T01:14:30.173Z,89.27
2024-03-14T01:16:56.677Z,89.57
2024-03-14T01:19:23.150Z,89.48
2024-03-14T01:21:49.608Z,89.69
2024-03-14T01:24:16.082Z,88.52
2024-03-14T01:26:42.980Z,89.51
2024-03-14T01:29:09.357Z,89.32
2024-03-14T01:31:35.776Z,89.09
2024-03-14T01:34:02.268Z,89.03
2024-03-14T01:36:28.848Z,89.03
2024-03-14T01:38:55.236Z,89.04
2024-03-14T01:41:22.139Z,89.19
2024-03-14T01:44:01.217Z,89.05
2024-03-14T01:46:31.820Z,88.07
2024-03-14T01:49:01.053Z,89.37
2024-03-14T01:51:29.098Z,89.08
2024-03-14T01:53:55.617Z,90.08
2024-03-14T01:56:22.646Z,90.19
2024-03-14T01:58:53.420Z,89.87
2024-03-14T02:01:21.138Z,89.32
2024-03-14T02:03:57.860Z,89.43
2024-03-14T02:06:37.789Z,90.13
2024-03-14T02:09:04.302Z,89.34
2024-03-14T02:11:30.708Z,89.95
2024-03-14T02:13:57.074Z,90.89
2024-03-14T02:16:23.516Z,90.52
2024-03-14T02:18:49.946Z,90.97
2024-03-14T02:21:16.396Z,90.09
2024-03-14T02:23:42.878Z,89.60
2024-03-14T02:26:09.405Z,89.71
2024-03-14T02:28:35.845Z,90.02
2024-03-14T02:31:02.282Z,89.58
2024-03-14T02:33:28.732Z,90.58
2024-03-14T02:35:55.224Z,90.30
2024-03-14T02:38:21.625Z,89.73
2024-03-14T02:40:48.018Z,90.12
2024-03-14T02:43:14.348Z,90.23
2024-03-14T02:45:40.660Z,90.21
2024-03-14T02:48:07.216Z,90.13
2024-03-14T02:50:33.665Z,89.69
2024-03-14T02:53:00.041Z,89.58
2024-03-14T02:55:26.383Z,90.05
2024-03-14T02:57:52.815Z,89.70
2024-03-14T03:00:19.518Z,89.87
2024-03-14T03:02:46.105Z,89.70
2024-03-14T03:05:12.660Z,90.08
2024-03-14T03:07:39.081Z,89.64
2024-03-14T03:10:06.824Z,89.42
2024-03-14T03:12:33.850Z,90.47
2024-03-14T03:15:00.396Z,89.69
2024-03-14T03:17:26.834Z,89.72
2024-03-14T03:19:53.397Z,90.21
2024-03-14T03:22:19.746Z,91.38
2024-03-14T03:24:46.187Z,90.34
2024-03-14T03:27:12.572Z,90.49
2024-03-14T03:29:38.982Z,90.46
2024-03-14T03:32:05.376Z,90.39
2024-03-14T03:34:31.694Z,90.76
2024-03-14T03:36:58.213Z,90.46
2024-03-14T03:39:24.585Z,91.03
2024-03-14T03:41:50.980Z,91.80
2024-03-14T03:44:17.347Z,90.84
2024-03-14T03:46:44.181Z,91.55
2024-03-14T03:49:10.540Z,92.18
2024-03-14T03:51:36.914Z,91.76
2024-03-14T03:54:03.731Z,91.15
2024-03-14T03:56:30.620Z,91.82
2024-03-14T03:58:57.056Z,92.00
2024-03-14T04:01:23.402Z,91.63
2024-03-14T04:03:49.800Z,91.59
2024-03-14T04:06:18.591Z,90.99
2024-03-14T04:08:45.022Z,91.16
2024-03-14T04:11:12.695Z,91.59
2024-03-14T04:13:39.168Z,91.81
2024-03-14T04:16:05.686Z,91.39
2024-03-14T04:18:32.750Z,90.83
2024-03-14T04:20:59.556Z,91.21
2024-03-14T04:23:26.018Z,90.83
2024-03-14T04:25:52.976Z,91.45
2024-03-14T04:28:19.306Z,90.90
2024-03-14T04:30:45.849Z,91.26
2024-03-14T04:33:12.435Z,91.29
2024-03-14T04:35:38.830Z,91.41
2024-03-14T04:38:05.349Z,90.90
2024-03-14T04:40:31.869Z,91.79
2024-03-14T04:42:58.179Z,91.74
2024-03-14T04:45:24.607Z,91.73
2024-03-14T04:47:51.753Z,90.85
2024-03-14T04:50:19.024Z,90.79
2024-03-14T04:52:46.236Z,90.71
2024-03-14T04:55:12.778Z,91.05
2024-03-14T04:57:40.373Z,90.81
2024-03-14T05:00:07.262Z,92.12
2024-03-14T05:02:33.698Z,91.23
2024-03-14T05:05:00.105Z,90.88
2024-03-14T05:07:26.490Z,90.70
2024-03-14T05:09:53.698Z,90.82
2024-03-14T05:12:20.092Z,90.82
2024-03-14T05:14:46.564Z,89.88
2024-03-14T05:17:13.078Z,90.42
2024-03-14T05:19:39.700Z,90.71
2024-03-14T05:22:06.033Z,90.68
2024-03-14T05:24:32.407Z,90.21
2024-03-14T05:26:58.835Z,91.21
2024-03-14T05:29:25.209Z,90.24
2024-03-14T05:31:51.712Z,90.44
2024-03-14T05:34:18.053Z,90.59
2024-03-14T05:36:44.496Z,90.32
2024-03-14T05:39:11.360Z,90.90
2024-03-14T05:41:37.780Z,91.94
2024-03-14T05:44:04.221Z,92.28
2024-03-14T05:46:30.556Z,91.60
2024-03-14T05:48:57.007Z,91.65
2024-03-14T05:51:23.601Z,92.00
2024-03-14T05:53:50.065Z,91.66
2024-03-14T05:56:16.389Z,92.55
2024-03-14T05:58:46.048Z,92.51
2024-03-14T06:01:12.583Z,92.31
2024-03-14T06:03:39.422Z,92.68
2024-03-14T06:06:06.132Z,92.98
2024-03-14T06:08:32.531Z,92.60
2024-03-14T06:10:58.863Z,92.68
2024-03-14T06:13:25.207Z,92.02
2024-03-14T06:15:51.636Z,92.07
2024-03-14T06:18:18.172Z,91.48
2024-03-14T06:20:44.617Z,92.67
2024-03-14T06:23:10.939Z,92.54
2024-03-14T06:25:37.351Z,92.83
2024-03-14T06:28:03.878Z,92.51
2024-03-14T06:30:30.331Z,92.41
2024-03-14T06:54:04.027Z,91.37
2024-03-14T07:01:57.697Z,91.58
2024-03-14T20:10:05.925Z,74.47
2024-03-14T20:44:41.835Z,76.70
2024-03-14T20:47:08.909Z,77.21
2024-03-14T20:49:35.373Z,76.62
2024-03-14T20:52:01.886Z,78.47
2024-03-14T20:54:28.919Z,78.57
2024-03-14T20:56:56.769Z,78.85
2024-03-14T20:59:23.791Z,79.81
2024-03-14T21:01:50.193Z,79.75
2024-03-14T21:04:16.873Z,80.71
2024-03-14T21:06:43.322Z,80.21
2024-03-14T21:09:09.779Z,79.86
2024-03-14T21:11:38.967Z,79.50
2024-03-14T21:14:05.492Z,79.75
2024-03-14T21:16:35.439Z,79.89
2024-03-14T21:19:01.995Z,80.50
2024-03-14T21:21:28.428Z,80.02
2024-03-14T21:23:54.844Z,81.17
2024-03-14T21:26:21.351Z,80.73
2024-03-14T21:28:47.706Z,80.57
2024-03-14T21:31:14.212Z,81.53
2024-03-14T21:33:40.931Z,82.63
2024-03-14T21:36:07.658Z,81.70
2024-03-14T21:38:34.027Z,81.91
2024-03-14T21:41:00.366Z,81.98
2024-03-14T21:43:26.689Z,81.90
2024-03-14T21:45:53.079Z,82.21
2024-03-14T21:48:19.524Z,82.45
2024-03-14T21:50:45.986Z,82.23
2024-03-14T21:53:12.362Z,81.72
2024-03-14T21:55:38.751Z,84.32
2024-03-14T21:58:05.243Z,83.53
2024-03-14T22:00:31.710Z,83.79
2024-03-14T22:02:58.106Z,83.85
2024-03-14T22:05:24.601Z,84.15
2024-03-14T22:07:51.215Z,84.12
2024-03-14T22:10:17.572Z,85.34
2024-03-14T22:12:44.107Z,85.83
2024-03-14T22:15:10.527Z,85.68
2024-03-14T22:17:37.044Z,86.05
2024-03-14T22:20:04.085Z,86.04
2024-03-14T22:22:30.411Z,85.95
2024-03-14T22:24:56.765Z,86.24
2024-03-14T22:27:23.106Z,86.70
2024-03-14T22:29:49.518Z,86.41
2024-03-14T22:32:15.885Z,86.56
2024-03-14T22:34:42.277Z,86.81
2024-03-14T22:37:08.771Z,87.66
2024-03-14T22:39:35.161Z,88.75
2024-03-14T22:42:01.573Z,87.66
2024-03-14T22:44:27.911Z,87.26
2024-03-14T22:46:54.258Z,87.39
2024-03-14T22:49:20.671Z,87.16
2024-03-14T22:51:47.150Z,87.62
2024-03-14T22:54:13.679Z,86.80
2024-03-14T22:56:40.113Z,87.77
2024-03-14T22:59:06.491Z,87.66
2024-03-14T23:01:33.405Z,87.32
2024-03-14T23:03:59.770Z,88.61
2024-03-14T23:06:26.168Z,88.40
2024-03-14T23:08:52.560Z,90.53
2024-03-14T23:11:18.890Z,90.75
2024-03-14T23:13:45.368Z,90.68
2024-03-14T23:16:14.866Z,90.64
2024-03-14T23:18:41.315Z,89.68
2024-03-14T23:21:07.805Z,89.64
2024-03-14T23:23:34.236Z,89.53
2024-03-14T23:26:00.678Z,89.29
2024-03-14T23:28:27.222Z,89.56
2024-03-14T23:30:53.641Z,89.82
2024-03-14T23:33:20.197Z,89.36
2024-03-14T23:35:46.973Z,89.93
2024-03-14T23:38:13.939Z,90.20
2024-03-14T23:40:40.616Z,89.85
2024-03-14T23:43:07.055Z,89.43
2024-03-14T23:45:33.437Z,90.37
2024-03-14T23:47:59.801Z,90.01
2024-03-14T23:50:26.507Z,89.18
2024-03-14T23:52:53.006Z,89.65
2024-03-14T23:55:19.482Z,89.88
2024-03-14T23:57:46.385Z,89.53
